KSFO/SFO METAR and TAF weather

Enter ICAO airport designator
Station Type Date Time Source
KSFO METAR 2019/04/20 17:56 UTC NOAA

KSFO 201756Z 27021G29KT 9SM FEW007 BKN011 OVC015 13/09 A2998 RMK AO2 PK WND 27031/1737 SLP152 T01280089 10133 20111 52021


Station Type Date Time Source
KSFO Decoded METAR 2019/04/20 17:56 UTC NOAA

SAN FRANCISCO INTERNATIONAL AIRPORT , CA, United States (KSFO) 37-37N 122-22W 26M
Apr 20, 2019 - 01:56 PM EDT / 2019.04.20 1756 UTC
Wind: from the W (270 degrees) at 24 MPH (21 KT) gusting to 33 MPH (29 KT):0
Visibility: 9 mile(s):0
Sky conditions: overcast
Temperature: 55.0 F (12.8 C)
Dew Point: 48.0 F (8.9 C)
Relative Humidity: 77%
Pressure (altimeter): 29.98 in. Hg (1015 hPa)
Pressure tendency: 0.06 inches (2.1 hPa) higher than three hours ago
ob: KSFO 201756Z 27021G29KT 9SM FEW007 BKN011 OVC015 13/09 A2998 RMK AO2 PK WND 27031/1737 SLP152 T01280089 10133 20111 52021
cycle: 18

Station Type Date Time Source
KSFO TAF 2019/04/20 18:27 UTC NOAA

TAF KSFO 201724Z 2018/2124 26028G36KT P6SM FEW007 BKN015
TEMPO 2018/2020 OVC013
FM202000 26026G35KT P6SM FEW008 SCT015 BKN025
FM202200 26022G32KT P6SM FEW009 FEW018 SCT030
FM210400 26018G24KT P6SM FEW009 FEW030
FM210600 25011KT P6SM FEW008 SCT016 SCT022
FM211000 24006KT P6SM SCT008 SCT014 SCT020
TEMPO 2110/2114 SCT008 SCT012 BKN020
FM211800 32008KT P6SM FEW009 FEW024
FM212100 28018G24KT P6SM FEW010

Example: see airport list